FDX5062 KBWI-KPIT
Flight info
| Callsign | FDX5062 |
|---|---|
| Flight time | 0h 41m |
| Altitude | 30000 |
| Route | LINSE2 MCRAY Q178 LEJOY DEMME5 |
| Aircraft | B738/M-SDE2E3FGHIRWXY/LB1 |
Departure
| Time | 2026-05-03 21:44 |
|---|---|
| Airport | Baltimore/Washington International Thurgood Marshall Airport (KBWI) |
Arrival
| Time | 2026-05-03 22:26 |
|---|---|
| Airport | Pittsburgh International Airport (KPIT) |
| Time | Latitude | Longitude | Altitude | Speed | Heading |
|---|---|---|---|---|---|
| 2026-05-03 21:04 | 39.18612 | -76.66752 | 166 ft | 0 kts | 269° |
| 2026-05-03 21:32 | 39.18614 | -76.66729 | 164 ft | 4 kts | 255° |
| 2026-05-03 21:32 | 39.18618 | -76.66700 | 163 ft | 4 kts | 268° |
| 2026-05-03 21:32 | 39.18613 | -76.66669 | 162 ft | 4 kts | 313° |
| 2026-05-03 21:33 | 39.18593 | -76.66651 | 160 ft | 2 kts | 336° |
| 2026-05-03 21:33 | 39.18588 | -76.66648 | 160 ft | 0 kts | 336° |
| 2026-05-03 21:35 | 39.18604 | -76.66649 | 161 ft | 3 kts | 5° |
| 2026-05-03 21:35 | 39.18618 | -76.66632 | 161 ft | 3 kts | 72° |
| 2026-05-03 21:36 | 39.18603 | -76.66621 | 160 ft | 4 kts | 194° |
| 2026-05-03 21:36 | 39.18564 | -76.66629 | 158 ft | 8 kts | 167° |
| 2026-05-03 21:36 | 39.18496 | -76.66571 | 156 ft | 14 kts | 142° |
| 2026-05-03 21:36 | 39.18418 | -76.66497 | 155 ft | 14 kts | 144° |
| 2026-05-03 21:37 | 39.18344 | -76.66423 | 155 ft | 13 kts | 132° |
| 2026-05-03 21:37 | 39.18325 | -76.66312 | 155 ft | 13 kts | 124° |
| 2026-05-03 21:37 | 39.18256 | -76.66236 | 155 ft | 14 kts | 143° |
| 2026-05-03 21:37 | 39.18179 | -76.66164 | 154 ft | 14 kts | 144° |
| 2026-05-03 21:38 | 39.18093 | -76.66088 | 154 ft | 17 kts | 147° |
| 2026-05-03 21:38 | 39.17990 | -76.66003 | 151 ft | 18 kts | 147° |
| 2026-05-03 21:38 | 39.17872 | -76.65909 | 146 ft | 20 kts | 149° |
| 2026-05-03 21:38 | 39.17757 | -76.65819 | 146 ft | 19 kts | 148° |
| 2026-05-03 21:39 | 39.17644 | -76.65729 | 145 ft | 19 kts | 149° |
| 2026-05-03 21:39 | 39.17532 | -76.65654 | 141 ft | 12 kts | 179° |
| 2026-05-03 21:39 | 39.17447 | -76.65653 | 141 ft | 12 kts | 160° |
| 2026-05-03 21:39 | 39.17421 | -76.65556 | 141 ft | 12 kts | 105° |
| 2026-05-03 21:40 | 39.17383 | -76.65522 | 140 ft | 0 kts | 179° |
| 2026-05-03 21:40 | 39.17382 | -76.65522 | 140 ft | 0 kts | 179° |
| 2026-05-03 21:42 | 39.17372 | -76.65522 | 140 ft | 6 kts | 179° |
| 2026-05-03 21:43 | 39.17315 | -76.65523 | 140 ft | 11 kts | 188° |
| 2026-05-03 21:43 | 39.17278 | -76.65595 | 140 ft | 11 kts | 269° |
| 2026-05-03 21:43 | 39.17285 | -76.65694 | 140 ft | 20 kts | 275° |
| 2026-05-03 21:43 | 39.17318 | -76.66278 | 147 ft | 109 kts | 274° |
| 2026-05-03 21:44 | 39.17393 | -76.67578 | 235 ft | 175 kts | 275° |
| 2026-05-03 21:44 | 39.17504 | -76.69247 | 996 ft | 198 kts | 274° |
| 2026-05-03 21:44 | 39.17585 | -76.70920 | 2287 ft | 186 kts | 274° |
| 2026-05-03 21:44 | 39.17696 | -76.72658 | 2870 ft | 204 kts | 276° |
| 2026-05-03 21:45 | 39.17764 | -76.74582 | 3352 ft | 221 kts | 274° |
| 2026-05-03 21:45 | 39.17879 | -76.76574 | 4110 ft | 223 kts | 277° |
| 2026-05-03 21:45 | 39.18052 | -76.78563 | 4916 ft | 225 kts | 278° |
| 2026-05-03 21:45 | 39.18232 | -76.80557 | 5625 ft | 229 kts | 278° |
| 2026-05-03 21:46 | 39.18411 | -76.82591 | 6422 ft | 229 kts | 278° |
| 2026-05-03 21:46 | 39.18591 | -76.84643 | 7133 ft | 232 kts | 278° |
| 2026-05-03 21:46 | 39.18773 | -76.86729 | 7825 ft | 236 kts | 278° |
| 2026-05-03 21:46 | 39.18954 | -76.88832 | 8538 ft | 237 kts | 278° |
| 2026-05-03 21:47 | 39.19138 | -76.90959 | 9219 ft | 241 kts | 278° |
| 2026-05-03 21:47 | 39.19325 | -76.93115 | 9907 ft | 243 kts | 278° |
| 2026-05-03 21:47 | 39.19506 | -76.95271 | 10635 ft | 243 kts | 278° |
| 2026-05-03 21:47 | 39.19699 | -76.97502 | 11047 ft | 262 kts | 280° |
| 2026-05-03 21:48 | 39.20029 | -76.99892 | 11266 ft | 287 kts | 284° |
| 2026-05-03 21:48 | 39.20461 | -77.02519 | 11491 ft | 311 kts | 284° |
| 2026-05-03 21:48 | 39.20913 | -77.05317 | 11973 ft | 324 kts | 284° |
| 2026-05-03 21:48 | 39.21360 | -77.08175 | 12804 ft | 324 kts | 283° |
| 2026-05-03 21:49 | 39.21802 | -77.11023 | 13680 ft | 325 kts | 284° |
| 2026-05-03 21:49 | 39.22600 | -77.13743 | 14366 ft | 328 kts | 303° |
| 2026-05-03 21:49 | 39.24056 | -77.16015 | 15157 ft | 331 kts | 314° |
| 2026-05-03 21:49 | 39.25781 | -77.18015 | 15897 ft | 335 kts | 317° |
| 2026-05-03 21:50 | 39.27561 | -77.19916 | 16573 ft | 339 kts | 317° |
| 2026-05-03 21:50 | 39.29393 | -77.21844 | 17261 ft | 342 kts | 318° |
| 2026-05-03 21:50 | 39.31230 | -77.23816 | 17932 ft | 344 kts | 316° |
| 2026-05-03 21:50 | 39.33051 | -77.25843 | 18601 ft | 347 kts | 316° |
| 2026-05-03 21:51 | 39.34880 | -77.27877 | 19255 ft | 349 kts | 316° |
| 2026-05-03 21:51 | 39.36630 | -77.30060 | 19817 ft | 350 kts | 305° |
| 2026-05-03 21:51 | 39.37785 | -77.32805 | 20457 ft | 349 kts | 291° |
| 2026-05-03 21:51 | 39.38655 | -77.35740 | 21058 ft | 351 kts | 290° |
| 2026-05-03 21:52 | 39.39541 | -77.38704 | 21590 ft | 355 kts | 291° |
| 2026-05-03 21:52 | 39.40442 | -77.41694 | 22124 ft | 358 kts | 291° |
| 2026-05-03 21:52 | 39.41338 | -77.44657 | 22676 ft | 360 kts | 290° |
| 2026-05-03 21:52 | 39.42252 | -77.47677 | 23170 ft | 362 kts | 290° |
| 2026-05-03 21:53 | 39.43176 | -77.50723 | 23678 ft | 364 kts | 290° |
| 2026-05-03 21:53 | 39.44105 | -77.53784 | 24194 ft | 366 kts | 290° |
| 2026-05-03 21:53 | 39.45030 | -77.56837 | 24836 ft | 363 kts | 290° |
| 2026-05-03 21:53 | 39.45946 | -77.59861 | 25527 ft | 359 kts | 290° |
| 2026-05-03 21:54 | 39.46848 | -77.62858 | 26183 ft | 356 kts | 290° |
| 2026-05-03 21:54 | 39.47742 | -77.65834 | 26779 ft | 354 kts | 290° |
| 2026-05-03 21:54 | 39.48618 | -77.68758 | 27344 ft | 353 kts | 290° |
| 2026-05-03 21:54 | 39.49502 | -77.71706 | 27932 ft | 350 kts | 290° |
| 2026-05-03 21:55 | 39.50377 | -77.74633 | 28543 ft | 346 kts | 290° |
| 2026-05-03 21:55 | 39.51245 | -77.77533 | 29076 ft | 345 kts | 290° |
| 2026-05-03 21:55 | 39.52111 | -77.80430 | 29542 ft | 345 kts | 290° |
| 2026-05-03 21:55 | 39.52973 | -77.83319 | 29967 ft | 344 kts | 290° |
| 2026-05-03 21:56 | 39.54717 | -77.89122 | 29996 ft | 346 kts | 290° |
| 2026-05-03 21:56 | 39.56481 | -77.94850 | 30007 ft | 344 kts | 290° |
| 2026-05-03 21:57 | 39.58254 | -78.00610 | 30014 ft | 344 kts | 290° |
| 2026-05-03 21:57 | 39.60019 | -78.06370 | 30018 ft | 344 kts | 290° |
| 2026-05-03 21:58 | 39.61781 | -78.12137 | 30012 ft | 344 kts | 290° |
| 2026-05-03 21:58 | 39.63527 | -78.17872 | 30016 ft | 344 kts | 290° |
| 2026-05-03 21:59 | 39.65283 | -78.23650 | 30028 ft | 344 kts | 290° |
| 2026-05-03 21:59 | 39.67027 | -78.29391 | 29999 ft | 333 kts | 290° |
| 2026-05-03 22:00 | 39.67866 | -78.32156 | 29820 ft | 327 kts | 290° |
| 2026-05-03 22:00 | 39.68684 | -78.34857 | 29627 ft | 318 kts | 290° |
| 2026-05-03 22:00 | 39.69493 | -78.37531 | 29275 ft | 315 kts | 290° |
| 2026-05-03 22:00 | 39.70288 | -78.40163 | 28904 ft | 312 kts | 290° |
| 2026-05-03 22:01 | 39.71066 | -78.42742 | 28561 ft | 310 kts | 290° |
| 2026-05-03 22:01 | 39.71848 | -78.45336 | 28195 ft | 307 kts | 290° |
| 2026-05-03 22:01 | 39.72622 | -78.47909 | 27828 ft | 305 kts | 290° |
| 2026-05-03 22:01 | 39.73387 | -78.50456 | 27459 ft | 302 kts | 290° |
| 2026-05-03 22:02 | 39.74148 | -78.52989 | 27119 ft | 300 kts | 290° |
| 2026-05-03 22:02 | 39.74903 | -78.55502 | 26764 ft | 298 kts | 290° |
| 2026-05-03 22:02 | 39.75654 | -78.58004 | 26407 ft | 296 kts | 290° |
| 2026-05-03 22:02 | 39.76401 | -78.60493 | 26054 ft | 295 kts | 290° |
| 2026-05-03 22:03 | 39.77131 | -78.62935 | 25692 ft | 293 kts | 290° |
| 2026-05-03 22:03 | 39.77868 | -78.65396 | 25358 ft | 291 kts | 290° |
| 2026-05-03 22:03 | 39.78599 | -78.67845 | 25008 ft | 289 kts | 290° |
| 2026-05-03 22:03 | 39.79326 | -78.70277 | 24658 ft | 287 kts | 290° |
| 2026-05-03 22:04 | 39.80045 | -78.72687 | 24343 ft | 285 kts | 290° |
| 2026-05-03 22:04 | 39.80761 | -78.75091 | 23992 ft | 283 kts | 290° |
| 2026-05-03 22:04 | 39.81472 | -78.77474 | 23669 ft | 283 kts | 290° |
| 2026-05-03 22:04 | 39.82182 | -78.79861 | 23311 ft | 283 kts | 290° |
| 2026-05-03 22:05 | 39.82894 | -78.82260 | 22994 ft | 286 kts | 290° |
| 2026-05-03 22:05 | 39.83624 | -78.84709 | 22669 ft | 294 kts | 290° |
| 2026-05-03 22:05 | 39.84353 | -78.87170 | 22291 ft | 296 kts | 290° |
| 2026-05-03 22:05 | 39.85091 | -78.89661 | 21938 ft | 294 kts | 290° |
| 2026-05-03 22:06 | 39.85825 | -78.92141 | 21586 ft | 293 kts | 290° |
| 2026-05-03 22:06 | 39.86553 | -78.94603 | 21244 ft | 291 kts | 290° |
| 2026-05-03 22:06 | 39.87277 | -78.97052 | 20891 ft | 289 kts | 290° |
| 2026-05-03 22:06 | 39.87995 | -78.99480 | 20563 ft | 286 kts | 290° |
| 2026-05-03 22:07 | 39.88706 | -79.01893 | 20215 ft | 285 kts | 290° |
| 2026-05-03 22:07 | 39.89406 | -79.04265 | 19889 ft | 283 kts | 290° |
| 2026-05-03 22:07 | 39.90108 | -79.06650 | 19560 ft | 281 kts | 290° |
| 2026-05-03 22:07 | 39.90807 | -79.09028 | 19221 ft | 280 kts | 290° |
| 2026-05-03 22:08 | 39.91502 | -79.11391 | 18891 ft | 279 kts | 290° |
| 2026-05-03 22:08 | 39.92193 | -79.13741 | 18568 ft | 277 kts | 290° |
| 2026-05-03 22:08 | 39.92879 | -79.16079 | 18232 ft | 276 kts | 290° |
| 2026-05-03 22:08 | 39.93562 | -79.18409 | 17909 ft | 274 kts | 290° |
| 2026-05-03 22:09 | 39.94239 | -79.20721 | 17586 ft | 273 kts | 291° |
| 2026-05-03 22:09 | 39.94906 | -79.22998 | 17263 ft | 272 kts | 291° |
| 2026-05-03 22:09 | 39.95578 | -79.25298 | 16934 ft | 271 kts | 291° |
| 2026-05-03 22:10 | 39.96915 | -79.29875 | 16300 ft | 269 kts | 291° |
| 2026-05-03 22:10 | 39.97577 | -79.32141 | 15993 ft | 267 kts | 291° |
| 2026-05-03 22:10 | 39.98235 | -79.34398 | 15675 ft | 266 kts | 291° |
| 2026-05-03 22:10 | 39.98889 | -79.36643 | 15373 ft | 265 kts | 291° |
| 2026-05-03 22:11 | 39.99541 | -79.38887 | 15066 ft | 264 kts | 291° |
| 2026-05-03 22:11 | 40.00208 | -79.41121 | 14744 ft | 264 kts | 295° |
| 2026-05-03 22:11 | 40.01224 | -79.43073 | 14349 ft | 266 kts | 311° |
| 2026-05-03 22:11 | 40.02468 | -79.44849 | 14033 ft | 265 kts | 310° |
| 2026-05-03 22:12 | 40.03675 | -79.46658 | 13717 ft | 264 kts | 310° |
| 2026-05-03 22:12 | 40.04873 | -79.48477 | 13368 ft | 265 kts | 310° |
| 2026-05-03 22:12 | 40.06063 | -79.50289 | 13121 ft | 262 kts | 310° |
| 2026-05-03 22:12 | 40.07245 | -79.52094 | 12820 ft | 261 kts | 310° |
| 2026-05-03 22:13 | 40.08426 | -79.53894 | 12514 ft | 260 kts | 310° |
| 2026-05-03 22:13 | 40.09603 | -79.55689 | 12224 ft | 258 kts | 310° |
| 2026-05-03 22:13 | 40.10762 | -79.57470 | 11937 ft | 257 kts | 310° |
| 2026-05-03 22:13 | 40.11919 | -79.59239 | 11642 ft | 256 kts | 310° |
| 2026-05-03 22:14 | 40.13054 | -79.60977 | 11344 ft | 253 kts | 309° |
| 2026-05-03 22:14 | 40.14154 | -79.62757 | 11059 ft | 253 kts | 308° |
| 2026-05-03 22:14 | 40.15265 | -79.64580 | 10778 ft | 258 kts | 307° |
| 2026-05-03 22:14 | 40.16403 | -79.66430 | 10475 ft | 264 kts | 307° |
| 2026-05-03 22:15 | 40.17564 | -79.68317 | 10220 ft | 267 kts | 307° |
| 2026-05-03 22:15 | 40.18691 | -79.70137 | 10127 ft | 247 kts | 307° |
| 2026-05-03 22:15 | 40.19689 | -79.71863 | 9939 ft | 229 kts | 299° |
| 2026-05-03 22:15 | 40.20307 | -79.73730 | 9633 ft | 219 kts | 290° |
| 2026-05-03 22:16 | 40.20864 | -79.75509 | 9344 ft | 210 kts | 292° |
| 2026-05-03 22:16 | 40.21436 | -79.77215 | 9085 ft | 200 kts | 292° |
| 2026-05-03 22:16 | 40.21994 | -79.78861 | 8838 ft | 196 kts | 292° |
| 2026-05-03 22:16 | 40.22542 | -79.80476 | 8598 ft | 193 kts | 292° |
| 2026-05-03 22:17 | 40.23083 | -79.82080 | 8371 ft | 193 kts | 292° |
| 2026-05-03 22:17 | 40.23627 | -79.83687 | 8126 ft | 193 kts | 292° |
| 2026-05-03 22:17 | 40.24170 | -79.85290 | 7885 ft | 193 kts | 292° |
| 2026-05-03 22:17 | 40.24711 | -79.86892 | 7651 ft | 192 kts | 292° |
| 2026-05-03 22:18 | 40.25248 | -79.88480 | 7399 ft | 194 kts | 292° |
| 2026-05-03 22:18 | 40.25792 | -79.90092 | 7162 ft | 193 kts | 292° |
| 2026-05-03 22:18 | 40.26335 | -79.91699 | 6928 ft | 193 kts | 292° |
| 2026-05-03 22:18 | 40.26872 | -79.93291 | 6669 ft | 189 kts | 292° |
| 2026-05-03 22:19 | 40.27398 | -79.94850 | 6423 ft | 185 kts | 292° |
| 2026-05-03 22:19 | 40.28107 | -79.96238 | 6180 ft | 188 kts | 315° |
| 2026-05-03 22:19 | 40.29123 | -79.97300 | 5965 ft | 186 kts | 314° |
| 2026-05-03 22:19 | 40.30072 | -79.98447 | 5732 ft | 185 kts | 313° |
| 2026-05-03 22:20 | 40.31004 | -79.99579 | 5516 ft | 184 kts | 313° |
| 2026-05-03 22:20 | 40.31934 | -80.00699 | 5280 ft | 178 kts | 313° |
| 2026-05-03 22:20 | 40.32831 | -80.01778 | 5056 ft | 173 kts | 313° |
| 2026-05-03 22:20 | 40.33707 | -80.02835 | 4827 ft | 169 kts | 313° |
| 2026-05-03 22:21 | 40.34569 | -80.03877 | 4608 ft | 167 kts | 313° |
| 2026-05-03 22:21 | 40.35425 | -80.04911 | 4418 ft | 168 kts | 313° |
| 2026-05-03 22:21 | 40.36289 | -80.05955 | 4206 ft | 170 kts | 314° |
| 2026-05-03 22:21 | 40.37213 | -80.06939 | 4032 ft | 171 kts | 313° |
| 2026-05-03 22:22 | 40.38046 | -80.08007 | 3994 ft | 166 kts | 311° |
| 2026-05-03 22:22 | 40.38867 | -80.09067 | 3986 ft | 166 kts | 312° |
| 2026-05-03 22:22 | 40.39737 | -80.10176 | 3421 ft | 184 kts | 313° |
| 2026-05-03 22:22 | 40.40645 | -80.11311 | 3135 ft | 177 kts | 313° |
| 2026-05-03 22:23 | 40.41517 | -80.12398 | 2913 ft | 169 kts | 313° |
| 2026-05-03 22:23 | 40.42348 | -80.13438 | 2718 ft | 160 kts | 313° |
| 2026-05-03 22:23 | 40.43131 | -80.14415 | 2505 ft | 153 kts | 313° |
| 2026-05-03 22:23 | 40.43883 | -80.15354 | 2313 ft | 145 kts | 313° |
| 2026-05-03 22:24 | 40.44360 | -80.15950 | 2148 ft | 141 kts | 311° |
| 2026-05-03 22:24 | 40.45282 | -80.17095 | 1917 ft | 137 kts | 313° |
| 2026-05-03 22:24 | 40.45973 | -80.17966 | 1731 ft | 138 kts | 311° |
| 2026-05-03 22:24 | 40.46676 | -80.18817 | 1566 ft | 138 kts | 318° |
| 2026-05-03 22:25 | 40.47378 | -80.19682 | 1375 ft | 136 kts | 306° |
| 2026-05-03 22:25 | 40.47999 | -80.20523 | 1182 ft | 125 kts | 316° |
| 2026-05-03 22:25 | 40.48597 | -80.21241 | 1147 ft | 102 kts | 317° |
| 2026-05-03 22:25 | 40.48975 | -80.21711 | 1149 ft | 50 kts | 317° |
| 2026-05-03 22:26 | 40.49113 | -80.21881 | 1148 ft | 25 kts | 317° |
| 2026-05-03 22:26 | 40.49228 | -80.22017 | 1150 ft | 15 kts | 340° |
| 2026-05-03 22:26 | 40.49322 | -80.21964 | 1153 ft | 8 kts | 13° |
| 2026-05-03 22:26 | 40.49377 | -80.21987 | 1154 ft | 9 kts | 336° |
| 2026-05-03 22:27 | 40.49426 | -80.22049 | 1153 ft | 10 kts | 313° |
| 2026-05-03 22:27 | 40.49478 | -80.22116 | 1154 ft | 11 kts | 317° |
| 2026-05-03 22:27 | 40.49518 | -80.22162 | 1152 ft | 12 kts | 320° |
| 2026-05-03 22:27 | 40.49597 | -80.22261 | 1154 ft | 12 kts | 314° |
| 2026-05-03 22:28 | 40.49634 | -80.22312 | 1154 ft | 11 kts | 313° |
| 2026-05-03 22:28 | 40.49684 | -80.22391 | 1153 ft | 12 kts | 304° |
| 2026-05-03 22:28 | 40.49741 | -80.22526 | 1153 ft | 13 kts | 301° |
| 2026-05-03 22:28 | 40.49787 | -80.22625 | 1155 ft | 13 kts | 302° |
| 2026-05-03 22:29 | 40.49833 | -80.22733 | 1153 ft | 15 kts | 296° |
| 2026-05-03 22:29 | 40.49865 | -80.22816 | 1154 ft | 15 kts | 300° |
| 2026-05-03 22:29 | 40.49919 | -80.22932 | 1153 ft | 15 kts | 300° |
| 2026-05-03 22:29 | 40.49965 | -80.23048 | 1154 ft | 14 kts | 299° |
| 2026-05-03 22:30 | 40.50013 | -80.23156 | 1154 ft | 13 kts | 298° |
| 2026-05-03 22:30 | 40.50054 | -80.23262 | 1152 ft | 13 kts | 299° |
| 2026-05-03 22:30 | 40.50110 | -80.23362 | 1148 ft | 14 kts | 338° |
| 2026-05-03 22:30 | 40.50208 | -80.23363 | 1151 ft | 14 kts | 346° |
| 2026-05-03 22:31 | 40.50284 | -80.23433 | 1153 ft | 13 kts | 306° |
| 2026-05-03 22:31 | 40.50303 | -80.23546 | 1154 ft | 13 kts | 276° |
| 2026-05-03 22:31 | 40.50373 | -80.23593 | 1154 ft | 11 kts | 0° |
| 2026-05-03 22:31 | 40.50431 | -80.23599 | 1154 ft | 8 kts | 332° |
| 2026-05-03 22:32 | 40.50443 | -80.23661 | 1154 ft | 7 kts | 270° |
| 2026-05-03 22:32 | 40.50443 | -80.23677 | 1154 ft | 0 kts | 271° |
| 2026-05-03 22:34 | 40.50441 | -80.23913 | 1154 ft | 0 kts | 358° |